sensor_id;sensor_type;location;lat;lon;timestamp;P1;durP1;ratioP1;P2;durP2;ratioP2
46266;SDS011;31998;48.798;15.066;2023-04-25T00:01:46;1.40;;;1.40;;
46266;SDS011;31998;48.798;15.066;2023-04-25T00:04:11;1.93;;;1.80;;
46266;SDS011;31998;48.798;15.066;2023-04-25T00:06:36;1.80;;;1.80;;
46266;SDS011;31998;48.798;15.066;2023-04-25T00:09:02;3.00;;;1.67;;
46266;SDS011;31998;48.798;15.066;2023-04-25T00:11:28;1.77;;;1.77;;
46266;SDS011;31998;48.798;15.066;2023-04-25T00:13:55;1.77;;;1.67;;
46266;SDS011;31998;48.798;15.066;2023-04-25T00:16:20;4.40;;;1.77;;
46266;SDS011;31998;48.798;15.066;2023-04-25T00:18:45;2.07;;;2.00;;
46266;SDS011;31998;48.798;15.066;2023-04-25T00:21:16;1.50;;;1.50;;
46266;SDS011;31998;48.798;15.066;2023-04-25T00:23:43;1.50;;;1.50;;
46266;SDS011;31998;48.798;15.066;2023-04-25T00:26:08;1.87;;;1.80;;
46266;SDS011;31998;48.798;15.066;2023-04-25T00:28:33;1.50;;;1.50;;
46266;SDS011;31998;48.798;15.066;2023-04-25T00:30:58;1.90;;;1.60;;
46266;SDS011;31998;48.798;15.066;2023-04-25T00:33:24;2.53;;;1.53;;
46266;SDS011;31998;48.798;15.066;2023-04-25T00:35:49;2.00;;;1.80;;
46266;SDS011;31998;48.798;15.066;2023-04-25T00:38:14;1.57;;;1.57;;
46266;SDS011;31998;48.798;15.066;2023-04-25T00:40:40;1.50;;;1.50;;
46266;SDS011;31998;48.798;15.066;2023-04-25T00:43:08;1.90;;;1.80;;
46266;SDS011;31998;48.798;15.066;2023-04-25T00:45:33;1.50;;;1.40;;
46266;SDS011;31998;48.798;15.066;2023-04-25T00:48:02;1.97;;;1.97;;
46266;SDS011;31998;48.798;15.066;2023-04-25T00:50:29;1.80;;;1.70;;
46266;SDS011;31998;48.798;15.066;2023-04-25T00:52:55;2.60;;;1.43;;
46266;SDS011;31998;48.798;15.066;2023-04-25T00:55:20;2.20;;;2.10;;
46266;SDS011;31998;48.798;15.066;2023-04-25T00:57:45;1.97;;;1.97;;
46266;SDS011;31998;48.798;15.066;2023-04-25T01:00:11;4.77;;;1.97;;
46266;SDS011;31998;48.798;15.066;2023-04-25T01:02:39;1.70;;;1.70;;
46266;SDS011;31998;48.798;15.066;2023-04-25T01:05:05;2.60;;;1.97;;
46266;SDS011;31998;48.798;15.066;2023-04-25T01:07:30;2.20;;;2.10;;
46266;SDS011;31998;48.798;15.066;2023-04-25T01:09:55;4.50;;;2.10;;
46266;SDS011;31998;48.798;15.066;2023-04-25T01:12:21;2.40;;;2.20;;
46266;SDS011;31998;48.798;15.066;2023-04-25T01:14:46;2.10;;;2.00;;
46266;SDS011;31998;48.798;15.066;2023-04-25T01:17:11;1.97;;;1.97;;
46266;SDS011;31998;48.798;15.066;2023-04-25T01:19:37;2.10;;;2.10;;
46266;SDS011;31998;48.798;15.066;2023-04-25T01:22:02;2.37;;;2.00;;
46266;SDS011;31998;48.798;15.066;2023-04-25T01:24:28;2.50;;;2.40;;
46266;SDS011;31998;48.798;15.066;2023-04-25T01:26:54;3.03;;;2.70;;
46266;SDS011;31998;48.798;15.066;2023-04-25T01:29:21;3.30;;;2.97;;
46266;SDS011;31998;48.798;15.066;2023-04-25T01:31:46;2.30;;;2.20;;
46266;SDS011;31998;48.798;15.066;2023-04-25T01:34:12;2.00;;;2.00;;
46266;SDS011;31998;48.798;15.066;2023-04-25T01:36:37;2.70;;;2.60;;
46266;SDS011;31998;48.798;15.066;2023-04-25T01:39:03;2.43;;;2.23;;
46266;SDS011;31998;48.798;15.066;2023-04-25T01:41:28;3.03;;;2.50;;
46266;SDS011;31998;48.798;15.066;2023-04-25T01:43:54;1.70;;;1.70;;
46266;SDS011;31998;48.798;15.066;2023-04-25T01:46:19;2.67;;;2.40;;
46266;SDS011;31998;48.798;15.066;2023-04-25T01:48:44;2.87;;;2.53;;
46266;SDS011;31998;48.798;15.066;2023-04-25T01:51:10;3.23;;;2.70;;
46266;SDS011;31998;48.798;15.066;2023-04-25T01:53:36;2.20;;;2.20;;
46266;SDS011;31998;48.798;15.066;2023-04-25T01:56:01;2.20;;;2.10;;
46266;SDS011;31998;48.798;15.066;2023-04-25T01:58:27;2.50;;;2.40;;
46266;SDS011;31998;48.798;15.066;2023-04-25T02:00:52;2.30;;;2.20;;
46266;SDS011;31998;48.798;15.066;2023-04-25T02:03:17;2.13;;;2.00;;
46266;SDS011;31998;48.798;15.066;2023-04-25T02:05:42;2.60;;;2.50;;
46266;SDS011;31998;48.798;15.066;2023-04-25T02:08:08;6.77;;;6.17;;
46266;SDS011;31998;48.798;15.066;2023-04-25T02:10:34;5.80;;;5.30;;
46266;SDS011;31998;48.798;15.066;2023-04-25T02:12:59;5.37;;;4.97;;
46266;SDS011;31998;48.798;15.066;2023-04-25T02:15:24;6.40;;;5.80;;
46266;SDS011;31998;48.798;15.066;2023-04-25T02:17:49;4.80;;;4.50;;
46266;SDS011;31998;48.798;15.066;2023-04-25T02:20:15;5.03;;;4.60;;
46266;SDS011;31998;48.798;15.066;2023-04-25T02:22:41;5.50;;;4.93;;
46266;SDS011;31998;48.798;15.066;2023-04-25T02:25:07;3.27;;;3.17;;
46266;SDS011;31998;48.798;15.066;2023-04-25T02:27:32;4.33;;;3.90;;
46266;SDS011;31998;48.798;15.066;2023-04-25T02:29:57;4.20;;;3.80;;
46266;SDS011;31998;48.798;15.066;2023-04-25T02:32:22;3.20;;;2.90;;
46266;SDS011;31998;48.798;15.066;2023-04-25T02:34:48;3.10;;;3.00;;
46266;SDS011;31998;48.798;15.066;2023-04-25T02:37:13;3.97;;;3.60;;
46266;SDS011;31998;48.798;15.066;2023-04-25T02:39:38;2.53;;;2.43;;
46266;SDS011;31998;48.798;15.066;2023-04-25T02:42:03;3.20;;;3.10;;
46266;SDS011;31998;48.798;15.066;2023-04-25T02:44:29;2.90;;;2.70;;
46266;SDS011;31998;48.798;15.066;2023-04-25T02:46:54;3.63;;;3.43;;
46266;SDS011;31998;48.798;15.066;2023-04-25T02:49:20;3.50;;;3.40;;
46266;SDS011;31998;48.798;15.066;2023-04-25T02:51:45;3.43;;;3.33;;
46266;SDS011;31998;48.798;15.066;2023-04-25T02:54:10;2.83;;;2.73;;
46266;SDS011;31998;48.798;15.066;2023-04-25T02:56:35;6.80;;;3.83;;
46266;SDS011;31998;48.798;15.066;2023-04-25T02:59:01;144.70;;;7.37;;
46266;SDS011;31998;48.798;15.066;2023-04-25T03:01:26;10.23;;;3.60;;
46266;SDS011;31998;48.798;15.066;2023-04-25T03:03:51;3.10;;;3.00;;
46266;SDS011;31998;48.798;15.066;2023-04-25T03:06:16;4.83;;;3.03;;
46266;SDS011;31998;48.798;15.066;2023-04-25T03:08:41;2.77;;;2.77;;
46266;SDS011;31998;48.798;15.066;2023-04-25T03:11:07;2.23;;;2.13;;
46266;SDS011;31998;48.798;15.066;2023-04-25T03:13:32;3.03;;;2.73;;
46266;SDS011;31998;48.798;15.066;2023-04-25T03:15:57;5.90;;;2.57;;
46266;SDS011;31998;48.798;15.066;2023-04-25T03:18:22;1.50;;;1.50;;
46266;SDS011;31998;48.798;15.066;2023-04-25T03:20:48;2.33;;;2.13;;
46266;SDS011;31998;48.798;15.066;2023-04-25T03:23:13;1.93;;;1.93;;
46266;SDS011;31998;48.798;15.066;2023-04-25T03:25:38;1.40;;;1.40;;
46266;SDS011;31998;48.798;15.066;2023-04-25T03:28:03;1.50;;;1.50;;
46266;SDS011;31998;48.798;15.066;2023-04-25T03:30:28;6.33;;;2.03;;
46266;SDS011;31998;48.798;15.066;2023-04-25T03:32:54;515.67;;;18.37;;
46266;SDS011;31998;48.798;15.066;2023-04-25T03:35:19;1.90;;;1.73;;
46266;SDS011;31998;48.798;15.066;2023-04-25T03:37:45;5.33;;;3.50;;
46266;SDS011;31998;48.798;15.066;2023-04-25T03:40:10;3.03;;;2.90;;
46266;SDS011;31998;48.798;15.066;2023-04-25T03:42:36;1.80;;;1.80;;
46266;SDS011;31998;48.798;15.066;2023-04-25T03:45:01;3.00;;;2.90;;
46266;SDS011;31998;48.798;15.066;2023-04-25T03:47:26;2.27;;;2.27;;
46266;SDS011;31998;48.798;15.066;2023-04-25T03:49:51;2.33;;;2.33;;
46266;SDS011;31998;48.798;15.066;2023-04-25T03:52:17;1.90;;;1.90;;
46266;SDS011;31998;48.798;15.066;2023-04-25T03:54:42;5.43;;;2.13;;
46266;SDS011;31998;48.798;15.066;2023-04-25T03:57:07;1.43;;;1.43;;
46266;SDS011;31998;48.798;15.066;2023-04-25T03:59:32;1.83;;;1.77;;
46266;SDS011;31998;48.798;15.066;2023-04-25T04:01:57;1.57;;;1.57;;
46266;SDS011;31998;48.798;15.066;2023-04-25T04:04:23;15.53;;;3.20;;
46266;SDS011;31998;48.798;15.066;2023-04-25T04:06:48;64.47;;;4.23;;
46266;SDS011;31998;48.798;15.066;2023-04-25T04:09:13;79.13;;;2.70;;
46266;SDS011;31998;48.798;15.066;2023-04-25T04:11:38;2.23;;;2.23;;
46266;SDS011;31998;48.798;15.066;2023-04-25T04:14:06;4.37;;;4.27;;
46266;SDS011;31998;48.798;15.066;2023-04-25T04:16:32;8.43;;;4.10;;
46266;SDS011;31998;48.798;15.066;2023-04-25T04:18:57;3.70;;;3.40;;
46266;SDS011;31998;48.798;15.066;2023-04-25T04:21:22;3.83;;;3.53;;
46266;SDS011;31998;48.798;15.066;2023-04-25T04:23:47;3.80;;;3.60;;
46266;SDS011;31998;48.798;15.066;2023-04-25T04:26:13;3.87;;;3.77;;
46266;SDS011;31998;48.798;15.066;2023-04-25T04:28:40;4.47;;;4.13;;
46266;SDS011;31998;48.798;15.066;2023-04-25T04:31:05;3.40;;;3.30;;
46266;SDS011;31998;48.798;15.066;2023-04-25T04:33:30;3.30;;;3.20;;
46266;SDS011;31998;48.798;15.066;2023-04-25T04:35:56;2.80;;;2.70;;
46266;SDS011;31998;48.798;15.066;2023-04-25T04:38:21;3.57;;;3.30;;
46266;SDS011;31998;48.798;15.066;2023-04-25T04:40:46;3.83;;;3.20;;
46266;SDS011;31998;48.798;15.066;2023-04-25T04:43:12;5.63;;;3.47;;
46266;SDS011;31998;48.798;15.066;2023-04-25T04:45:38;6.20;;;3.93;;
46266;SDS011;31998;48.798;15.066;2023-04-25T04:48:05;5.90;;;5.40;;
46266;SDS011;31998;48.798;15.066;2023-04-25T04:50:30;5.07;;;4.77;;
46266;SDS011;31998;48.798;15.066;2023-04-25T04:52:57;4.27;;;4.07;;
46266;SDS011;31998;48.798;15.066;2023-04-25T04:55:22;5.47;;;4.50;;
46266;SDS011;31998;48.798;15.066;2023-04-25T04:57:47;15.97;;;4.33;;
46266;SDS011;31998;48.798;15.066;2023-04-25T05:00:13;3.60;;;3.50;;
46266;SDS011;31998;48.798;15.066;2023-04-25T05:02:40;7.73;;;5.63;;
46266;SDS011;31998;48.798;15.066;2023-04-25T05:05:05;9.83;;;5.70;;
46266;SDS011;31998;48.798;15.066;2023-04-25T05:07:31;7.40;;;5.50;;
46266;SDS011;31998;48.798;15.066;2023-04-25T05:09:56;10.43;;;5.80;;
46266;SDS011;31998;48.798;15.066;2023-04-25T05:12:21;11.00;;;7.10;;
46266;SDS011;31998;48.798;15.066;2023-04-25T05:14:46;11.93;;;8.47;;
46266;SDS011;31998;48.798;15.066;2023-04-25T05:17:12;25.60;;;15.90;;
46266;SDS011;31998;48.798;15.066;2023-04-25T05:19:37;39.37;;;27.77;;
46266;SDS011;31998;48.798;15.066;2023-04-25T05:22:03;21.57;;;14.47;;
46266;SDS011;31998;48.798;15.066;2023-04-25T05:24:28;22.70;;;15.50;;
46266;SDS011;31998;48.798;15.066;2023-04-25T05:26:53;35.50;;;15.00;;
46266;SDS011;31998;48.798;15.066;2023-04-25T05:29:18;23.93;;;14.80;;
46266;SDS011;31998;48.798;15.066;2023-04-25T05:31:44;32.07;;;13.30;;
46266;SDS011;31998;48.798;15.066;2023-04-25T05:34:09;27.43;;;12.03;;
46266;SDS011;31998;48.798;15.066;2023-04-25T05:36:35;40.60;;;11.10;;
46266;SDS011;31998;48.798;15.066;2023-04-25T05:39:00;19.07;;;9.70;;
46266;SDS011;31998;48.798;15.066;2023-04-25T05:41:25;23.53;;;9.67;;
46266;SDS011;31998;48.798;15.066;2023-04-25T05:43:50;24.13;;;9.80;;
46266;SDS011;31998;48.798;15.066;2023-04-25T05:46:15;35.53;;;10.07;;
46266;SDS011;31998;48.798;15.066;2023-04-25T05:48:43;13.73;;;6.80;;
46266;SDS011;31998;48.798;15.066;2023-04-25T05:51:09;7.57;;;5.60;;
46266;SDS011;31998;48.798;15.066;2023-04-25T05:53:34;5.30;;;5.00;;
46266;SDS011;31998;48.798;15.066;2023-04-25T05:56:00;6.00;;;4.53;;
46266;SDS011;31998;48.798;15.066;2023-04-25T05:58:25;4.10;;;3.80;;
46266;SDS011;31998;48.798;15.066;2023-04-25T06:00:50;10.43;;;4.20;;
46266;SDS011;31998;48.798;15.066;2023-04-25T06:03:15;4.23;;;4.03;;
46266;SDS011;31998;48.798;15.066;2023-04-25T06:05:43;4.90;;;4.37;;
46266;SDS011;31998;48.798;15.066;2023-04-25T06:08:09;4.20;;;3.90;;
46266;SDS011;31998;48.798;15.066;2023-04-25T06:10:35;4.30;;;4.00;;
46266;SDS011;31998;48.798;15.066;2023-04-25T06:13:00;3.77;;;3.57;;
46266;SDS011;31998;48.798;15.066;2023-04-25T06:15:25;3.47;;;2.57;;
46266;SDS011;31998;48.798;15.066;2023-04-25T06:17:51;3.23;;;3.03;;
46266;SDS011;31998;48.798;15.066;2023-04-25T06:20:16;3.13;;;2.93;;
46266;SDS011;31998;48.798;15.066;2023-04-25T06:22:41;2.13;;;2.07;;
46266;SDS011;31998;48.798;15.066;2023-04-25T06:25:06;2.80;;;2.60;;
46266;SDS011;31998;48.798;15.066;2023-04-25T06:27:32;2.57;;;2.40;;
46266;SDS011;31998;48.798;15.066;2023-04-25T06:29:57;3.00;;;2.80;;
46266;SDS011;31998;48.798;15.066;2023-04-25T06:32:22;2.63;;;2.43;;
46266;SDS011;31998;48.798;15.066;2023-04-25T06:34:48;2.70;;;2.60;;
46266;SDS011;31998;48.798;15.066;2023-04-25T06:37:13;2.43;;;2.33;;
46266;SDS011;31998;48.798;15.066;2023-04-25T06:39:38;2.60;;;2.40;;
46266;SDS011;31998;48.798;15.066;2023-04-25T06:42:03;5.50;;;2.60;;
46266;SDS011;31998;48.798;15.066;2023-04-25T06:44:29;3.50;;;3.30;;
46266;SDS011;31998;48.798;15.066;2023-04-25T06:46:54;2.73;;;2.63;;
46266;SDS011;31998;48.798;15.066;2023-04-25T06:49:20;2.40;;;2.30;;
46266;SDS011;31998;48.798;15.066;2023-04-25T06:51:45;3.10;;;2.90;;
46266;SDS011;31998;48.798;15.066;2023-04-25T06:54:10;3.10;;;3.00;;
46266;SDS011;31998;48.798;15.066;2023-04-25T06:56:35;2.33;;;2.03;;
46266;SDS011;31998;48.798;15.066;2023-04-25T06:59:01;3.23;;;3.03;;
46266;SDS011;31998;48.798;15.066;2023-04-25T07:01:26;2.37;;;2.27;;
46266;SDS011;31998;48.798;15.066;2023-04-25T07:03:51;2.77;;;2.67;;
46266;SDS011;31998;48.798;15.066;2023-04-25T07:06:16;2.93;;;2.83;;
46266;SDS011;31998;48.798;15.066;2023-04-25T07:08:42;2.60;;;2.13;;
46266;SDS011;31998;48.798;15.066;2023-04-25T07:11:07;2.60;;;2.50;;
46266;SDS011;31998;48.798;15.066;2023-04-25T07:13:32;2.60;;;2.47;;
46266;SDS011;31998;48.798;15.066;2023-04-25T07:15:57;3.13;;;3.03;;
46266;SDS011;31998;48.798;15.066;2023-04-25T07:18:23;2.47;;;2.37;;
46266;SDS011;31998;48.798;15.066;2023-04-25T07:20:48;2.40;;;2.20;;
46266;SDS011;31998;48.798;15.066;2023-04-25T07:23:13;2.50;;;2.30;;
46266;SDS011;31998;48.798;15.066;2023-04-25T07:25:38;5.00;;;2.83;;
46266;SDS011;31998;48.798;15.066;2023-04-25T07:28:04;3.83;;;2.70;;
46266;SDS011;31998;48.798;15.066;2023-04-25T07:30:29;2.63;;;2.63;;
46266;SDS011;31998;48.798;15.066;2023-04-25T07:32:55;3.17;;;3.07;;
46266;SDS011;31998;48.798;15.066;2023-04-25T07:35:20;2.90;;;2.80;;
46266;SDS011;31998;48.798;15.066;2023-04-25T07:37:46;2.60;;;2.50;;
46266;SDS011;31998;48.798;15.066;2023-04-25T07:40:11;2.83;;;2.73;;
46266;SDS011;31998;48.798;15.066;2023-04-25T07:42:36;4.60;;;2.70;;
46266;SDS011;31998;48.798;15.066;2023-04-25T07:45:01;3.20;;;3.00;;
46266;SDS011;31998;48.798;15.066;2023-04-25T07:47:28;2.90;;;2.80;;
46266;SDS011;31998;48.798;15.066;2023-04-25T07:49:53;3.10;;;2.90;;
46266;SDS011;31998;48.798;15.066;2023-04-25T07:52:18;6.20;;;3.10;;
46266;SDS011;31998;48.798;15.066;2023-04-25T07:54:43;3.60;;;3.40;;
46266;SDS011;31998;48.798;15.066;2023-04-25T07:57:09;2.90;;;2.70;;
46266;SDS011;31998;48.798;15.066;2023-04-25T07:59:34;2.97;;;2.87;;
46266;SDS011;31998;48.798;15.066;2023-04-25T08:02:00;2.60;;;2.50;;
46266;SDS011;31998;48.798;15.066;2023-04-25T08:04:25;4.00;;;3.80;;
46266;SDS011;31998;48.798;15.066;2023-04-25T08:06:50;3.20;;;3.03;;
46266;SDS011;31998;48.798;15.066;2023-04-25T08:09:16;3.27;;;3.07;;
46266;SDS011;31998;48.798;15.066;2023-04-25T08:11:41;2.60;;;2.40;;
46266;SDS011;31998;48.798;15.066;2023-04-25T08:14:07;2.10;;;2.00;;
46266;SDS011;31998;48.798;15.066;2023-04-25T08:16:32;2.10;;;2.00;;
46266;SDS011;31998;48.798;15.066;2023-04-25T08:18:58;2.20;;;2.10;;
46266;SDS011;31998;48.798;15.066;2023-04-25T08:21:24;2.80;;;2.70;;
46266;SDS011;31998;48.798;15.066;2023-04-25T08:23:49;2.30;;;2.20;;
46266;SDS011;31998;48.798;15.066;2023-04-25T08:26:14;1.97;;;1.87;;
46266;SDS011;31998;48.798;15.066;2023-04-25T08:28:39;2.30;;;2.07;;
46266;SDS011;31998;48.798;15.066;2023-04-25T08:31:05;1.60;;;1.50;;
46266;SDS011;31998;48.798;15.066;2023-04-25T08:33:31;2.10;;;1.87;;
46266;SDS011;31998;48.798;15.066;2023-04-25T08:35:57;2.10;;;2.10;;
46266;SDS011;31998;48.798;15.066;2023-04-25T08:38:22;2.30;;;2.20;;
46266;SDS011;31998;48.798;15.066;2023-04-25T08:40:51;2.80;;;2.70;;
46266;SDS011;31998;48.798;15.066;2023-04-25T08:43:18;1.90;;;1.47;;
46266;SDS011;31998;48.798;15.066;2023-04-25T08:45:43;2.10;;;2.10;;
46266;SDS011;31998;48.798;15.066;2023-04-25T08:48:13;4.10;;;2.40;;
46266;SDS011;31998;48.798;15.066;2023-04-25T08:50:39;2.00;;;1.90;;
46266;SDS011;31998;48.798;15.066;2023-04-25T08:53:05;2.07;;;1.97;;
46266;SDS011;31998;48.798;15.066;2023-04-25T08:55:33;2.50;;;2.30;;
46266;SDS011;31998;48.798;15.066;2023-04-25T08:57:59;1.57;;;1.57;;
46266;SDS011;31998;48.798;15.066;2023-04-25T09:00:25;2.57;;;2.37;;
46266;SDS011;31998;48.798;15.066;2023-04-25T09:02:50;1.60;;;1.60;;
46266;SDS011;31998;48.798;15.066;2023-04-25T09:05:16;1.60;;;1.60;;
46266;SDS011;31998;48.798;15.066;2023-04-25T09:07:41;1.47;;;1.47;;
46266;SDS011;31998;48.798;15.066;2023-04-25T09:10:07;2.40;;;1.57;;
46266;SDS011;31998;48.798;15.066;2023-04-25T09:12:32;2.20;;;1.23;;
46266;SDS011;31998;48.798;15.066;2023-04-25T09:15:05;1.60;;;0.97;;
46266;SDS011;31998;48.798;15.066;2023-04-25T09:17:31;1.23;;;0.83;;
46266;SDS011;31998;48.798;15.066;2023-04-25T09:20:04;3.07;;;0.80;;
46266;SDS011;31998;48.798;15.066;2023-04-25T09:22:30;0.90;;;0.90;;
46266;SDS011;31998;48.798;15.066;2023-04-25T09:24:55;0.50;;;0.50;;
46266;SDS011;31998;48.798;15.066;2023-04-25T09:27:21;1.17;;;0.90;;
46266;SDS011;31998;48.798;15.066;2023-04-25T09:29:47;1.27;;;0.60;;
46266;SDS011;31998;48.798;15.066;2023-04-25T09:34:42;1.50;;;1.50;;
46266;SDS011;31998;48.798;15.066;2023-04-25T09:37:08;0.57;;;0.57;;
46266;SDS011;31998;48.798;15.066;2023-04-25T09:39:34;4.00;;;0.63;;
46266;SDS011;31998;48.798;15.066;2023-04-25T09:41:59;1.57;;;0.73;;
46266;SDS011;31998;48.798;15.066;2023-04-25T09:44:25;0.57;;;0.57;;
46266;SDS011;31998;48.798;15.066;2023-04-25T09:46:50;1.20;;;0.80;;
46266;SDS011;31998;48.798;15.066;2023-04-25T09:49:22;1.83;;;1.70;;
46266;SDS011;31998;48.798;15.066;2023-04-25T09:51:56;4.47;;;1.60;;
46266;SDS011;31998;48.798;15.066;2023-04-25T09:54:22;1.47;;;1.47;;
46266;SDS011;31998;48.798;15.066;2023-04-25T09:56:48;1.57;;;1.10;;
46266;SDS011;31998;48.798;15.066;2023-04-25T09:59:16;3.57;;;1.23;;
46266;SDS011;31998;48.798;15.066;2023-04-25T10:01:41;1.40;;;1.23;;
46266;SDS011;31998;48.798;15.066;2023-04-25T10:04:08;2.13;;;1.57;;
46266;SDS011;31998;48.798;15.066;2023-04-25T10:06:35;1.20;;;1.20;;
46266;SDS011;31998;48.798;15.066;2023-04-25T10:09:02;1.63;;;1.53;;
46266;SDS011;31998;48.798;15.066;2023-04-25T10:11:28;1.60;;;1.60;;
46266;SDS011;31998;48.798;15.066;2023-04-25T10:13:55;2.60;;;1.60;;
46266;SDS011;31998;48.798;15.066;2023-04-25T10:16:21;1.30;;;1.30;;
46266;SDS011;31998;48.798;15.066;2023-04-25T10:18:46;1.30;;;1.30;;
46266;SDS011;31998;48.798;15.066;2023-04-25T10:21:11;1.60;;;1.60;;
46266;SDS011;31998;48.798;15.066;2023-04-25T10:23:37;3.13;;;2.93;;
46266;SDS011;31998;48.798;15.066;2023-04-25T10:26:03;1.50;;;1.40;;
46266;SDS011;31998;48.798;15.066;2023-04-25T10:28:29;2.13;;;0.83;;
46266;SDS011;31998;48.798;15.066;2023-04-25T10:30:57;1.23;;;0.83;;
46266;SDS011;31998;48.798;15.066;2023-04-25T10:33:30;2.63;;;1.03;;
46266;SDS011;31998;48.798;15.066;2023-04-25T10:35:57;1.50;;;0.70;;
46266;SDS011;31998;48.798;15.066;2023-04-25T10:38:23;1.20;;;1.10;;
46266;SDS011;31998;48.798;15.066;2023-04-25T10:41:04;11.10;;;3.73;;
46266;SDS011;31998;48.798;15.066;2023-04-25T10:46:21;4.00;;;1.47;;
46266;SDS011;31998;48.798;15.066;2023-04-25T10:48:48;2.60;;;1.10;;
46266;SDS011;31998;48.798;15.066;2023-04-25T10:51:36;8.20;;;1.03;;
46266;SDS011;31998;48.798;15.066;2023-04-25T10:59:09;7.03;;;0.80;;
46266;SDS011;31998;48.798;15.066;2023-04-25T11:01:39;3.50;;;0.80;;
46266;SDS011;31998;48.798;15.066;2023-04-25T11:04:04;2.60;;;1.20;;
46266;SDS011;31998;48.798;15.066;2023-04-25T11:06:35;0.60;;;0.60;;
46266;SDS011;31998;48.798;15.066;2023-04-25T11:09:02;0.73;;;0.73;;
46266;SDS011;31998;48.798;15.066;2023-04-25T11:11:28;0.97;;;0.97;;
46266;SDS011;31998;48.798;15.066;2023-04-25T11:13:53;2.20;;;1.10;;
46266;SDS011;31998;48.798;15.066;2023-04-25T11:16:19;1.20;;;1.20;;
46266;SDS011;31998;48.798;15.066;2023-04-25T11:18:44;1.57;;;1.37;;
46266;SDS011;31998;48.798;15.066;2023-04-25T11:21:10;1.80;;;1.60;;
46266;SDS011;31998;48.798;15.066;2023-04-25T11:23:35;1.83;;;1.20;;
46266;SDS011;31998;48.798;15.066;2023-04-25T11:26:01;3.43;;;1.83;;
46266;SDS011;31998;48.798;15.066;2023-04-25T11:28:26;1.37;;;1.30;;
46266;SDS011;31998;48.798;15.066;2023-04-25T11:30:52;1.23;;;1.23;;
46266;SDS011;31998;48.798;15.066;2023-04-25T11:33:17;5.10;;;2.37;;
46266;SDS011;31998;48.798;15.066;2023-04-25T11:35:43;1.70;;;1.57;;
46266;SDS011;31998;48.798;15.066;2023-04-25T11:38:08;2.20;;;2.10;;
46266;SDS011;31998;48.798;15.066;2023-04-25T11:40:33;3.17;;;1.40;;
46266;SDS011;31998;48.798;15.066;2023-04-25T11:43:00;3.10;;;1.93;;
46266;SDS011;31998;48.798;15.066;2023-04-25T11:45:26;1.20;;;1.10;;
46266;SDS011;31998;48.798;15.066;2023-04-25T11:47:51;1.43;;;0.70;;
46266;SDS011;31998;48.798;15.066;2023-04-25T11:50:16;0.87;;;0.87;;
46266;SDS011;31998;48.798;15.066;2023-04-25T11:52:42;1.80;;;0.60;;
46266;SDS011;31998;48.798;15.066;2023-04-25T11:57:33;2.47;;;0.97;;
46266;SDS011;31998;48.798;15.066;2023-04-25T12:00:11;1.07;;;1.07;;
46266;SDS011;31998;48.798;15.066;2023-04-25T12:02:41;1.20;;;0.80;;
46266;SDS011;31998;48.798;15.066;2023-04-25T12:05:07;0.60;;;0.60;;
46266;SDS011;31998;48.798;15.066;2023-04-25T12:07:33;0.67;;;0.60;;
46266;SDS011;31998;48.798;15.066;2023-04-25T12:09:58;1.00;;;1.00;;
46266;SDS011;31998;48.798;15.066;2023-04-25T12:12:27;2.33;;;1.40;;
46266;SDS011;31998;48.798;15.066;2023-04-25T12:14:57;1.00;;;0.50;;
46266;SDS011;31998;48.798;15.066;2023-04-25T12:17:33;1.17;;;0.57;;
46266;SDS011;31998;48.798;15.066;2023-04-25T12:19:58;2.57;;;1.00;;
46266;SDS011;31998;48.798;15.066;2023-04-25T12:22:24;0.40;;;0.40;;
46266;SDS011;31998;48.798;15.066;2023-04-25T12:24:49;1.90;;;0.90;;
46266;SDS011;31998;48.798;15.066;2023-04-25T12:27:15;0.63;;;0.63;;
46266;SDS011;31998;48.798;15.066;2023-04-25T12:29:49;0.90;;;0.90;;
46266;SDS011;31998;48.798;15.066;2023-04-25T12:32:15;1.43;;;1.33;;
46266;SDS011;31998;48.798;15.066;2023-04-25T12:34:41;12.63;;;7.27;;
46266;SDS011;31998;48.798;15.066;2023-04-25T12:37:07;3.13;;;2.83;;
46266;SDS011;31998;48.798;15.066;2023-04-25T12:39:32;1.20;;;1.20;;
46266;SDS011;31998;48.798;15.066;2023-04-25T12:41:57;0.70;;;0.70;;
46266;SDS011;31998;48.798;15.066;2023-04-25T12:44:24;0.53;;;0.53;;
46266;SDS011;31998;48.798;15.066;2023-04-25T12:46:49;1.20;;;1.20;;
46266;SDS011;31998;48.798;15.066;2023-04-25T12:49:14;2.60;;;1.00;;
46266;SDS011;31998;48.798;15.066;2023-04-25T12:51:40;4.53;;;1.57;;
46266;SDS011;31998;48.798;15.066;2023-04-25T12:54:06;2.40;;;0.97;;
46266;SDS011;31998;48.798;15.066;2023-04-25T12:56:35;1.50;;;1.40;;
46266;SDS011;31998;48.798;15.066;2023-04-25T12:59:00;1.13;;;1.13;;
46266;SDS011;31998;48.798;15.066;2023-04-25T13:01:27;2.20;;;0.90;;
46266;SDS011;31998;48.798;15.066;2023-04-25T13:03:53;2.40;;;0.73;;
46266;SDS011;31998;48.798;15.066;2023-04-25T13:06:18;2.10;;;1.03;;
46266;SDS011;31998;48.798;15.066;2023-04-25T13:08:44;0.70;;;0.70;;
46266;SDS011;31998;48.798;15.066;2023-04-25T13:11:10;0.73;;;0.73;;
46266;SDS011;31998;48.798;15.066;2023-04-25T13:13:36;0.50;;;0.50;;
46266;SDS011;31998;48.798;15.066;2023-04-25T13:16:01;1.47;;;1.47;;
46266;SDS011;31998;48.798;15.066;2023-04-25T13:18:27;0.93;;;0.80;;
46266;SDS011;31998;48.798;15.066;2023-04-25T13:20:52;0.90;;;0.90;;
46266;SDS011;31998;48.798;15.066;2023-04-25T13:23:18;1.60;;;1.60;;
46266;SDS011;31998;48.798;15.066;2023-04-25T13:25:43;4.17;;;1.00;;
46266;SDS011;31998;48.798;15.066;2023-04-25T13:28:09;1.60;;;1.50;;
46266;SDS011;31998;48.798;15.066;2023-04-25T13:30:34;1.80;;;1.80;;
46266;SDS011;31998;48.798;15.066;2023-04-25T13:32:59;1.93;;;1.83;;
46266;SDS011;31998;48.798;15.066;2023-04-25T13:35:28;2.23;;;2.13;;
46266;SDS011;31998;48.798;15.066;2023-04-25T13:37:53;2.20;;;2.20;;
46266;SDS011;31998;48.798;15.066;2023-04-25T13:40:18;2.13;;;2.13;;
46266;SDS011;31998;48.798;15.066;2023-04-25T13:42:44;1.97;;;1.97;;
46266;SDS011;31998;48.798;15.066;2023-04-25T13:45:10;3.50;;;2.30;;
46266;SDS011;31998;48.798;15.066;2023-04-25T13:47:35;2.13;;;2.07;;
46266;SDS011;31998;48.798;15.066;2023-04-25T13:50:01;2.23;;;2.13;;
46266;SDS011;31998;48.798;15.066;2023-04-25T13:52:28;1.90;;;1.90;;
46266;SDS011;31998;48.798;15.066;2023-04-25T13:54:53;1.70;;;1.60;;
46266;SDS011;31998;48.798;15.066;2023-04-25T13:57:18;1.80;;;1.77;;
46266;SDS011;31998;48.798;15.066;2023-04-25T13:59:44;1.30;;;1.30;;
46266;SDS011;31998;48.798;15.066;2023-04-25T14:02:09;2.77;;;1.67;;
46266;SDS011;31998;48.798;15.066;2023-04-25T14:04:34;1.30;;;1.20;;
46266;SDS011;31998;48.798;15.066;2023-04-25T14:07:00;1.50;;;1.30;;
46266;SDS011;31998;48.798;15.066;2023-04-25T14:09:25;2.53;;;2.43;;
46266;SDS011;31998;48.798;15.066;2023-04-25T14:11:52;2.30;;;1.70;;
46266;SDS011;31998;48.798;15.066;2023-04-25T14:14:17;1.50;;;1.50;;
46266;SDS011;31998;48.798;15.066;2023-04-25T14:16:43;1.20;;;1.20;;
46266;SDS011;31998;48.798;15.066;2023-04-25T14:19:09;1.30;;;1.30;;
46266;SDS011;31998;48.798;15.066;2023-04-25T14:21:34;1.80;;;1.70;;
46266;SDS011;31998;48.798;15.066;2023-04-25T14:24:00;1.40;;;1.40;;
46266;SDS011;31998;48.798;15.066;2023-04-25T14:26:25;1.00;;;1.00;;
46266;SDS011;31998;48.798;15.066;2023-04-25T14:28:51;2.10;;;1.10;;
46266;SDS011;31998;48.798;15.066;2023-04-25T14:31:16;1.10;;;1.10;;
46266;SDS011;31998;48.798;15.066;2023-04-25T14:33:41;0.70;;;0.70;;
46266;SDS011;31998;48.798;15.066;2023-04-25T14:36:08;0.93;;;0.93;;
46266;SDS011;31998;48.798;15.066;2023-04-25T14:38:33;1.30;;;1.20;;